Country
Station

 

Weather  for  Catania/Sigonella  -  Italy    Italy

  
23 °C (73 °F)
    
 
 

Current METAR for Catania/Sigonella is :

LICZ 020955Z 12004KT 9999 FEW020 23/08 Q1014 RMK FEW VIS MIN 9999 WIND THR28 12001KT WIND THR10 32002KT A2997 BLU

 

This is a report for Catania/Sigonella - Italy.
 
The report was made 14 minutes ago, at 09:55 UTC .
The wind was blowing at a speed of 2.1 meters per second (4.6 miles per hour) from east/southeast (120°).
 
The temperature was 23 °C (73 °F), with a dew-point at 8 °C (46 °F).
The temperature felt like 25 °C (77 °F).
 
The atmospheric pressure was 1014 hPa (29.94 inHg).
The relative humidity was 38.2%.
 
There were a few clouds at a height of 610 meters (2000 feet).
 
The overall visibility was greater than 10 kilometers (6.2 miles).
 

 
 
 
 

Country :   A   B   C   D   E   F   G   H   I   J   K   L   M   N   O   P   Q   R   S   T   U   V   W   Y   Z

 

Site Info  |  Disclaimer  |  Credits  |  Privacy
Contact us  |  Add to favorites
© 2013-2020 METARs - All rights reserved